Terminal Aerodrome Forecast
Issued by NWS

Home | Current Version | Previous Version | Graphics & Text | Print | Product List | Glossary On
Versions: 1 2 3 4 5 6 7 8 9 10 11 12 13 14 15 16 17 18 19 20 21 22 23 24
000
FTUS43 KDVN 271730
TAFBRL
TAF
KBRL 271730Z 2718/2818 17013G20KT P6SM SCT015 BKN035
      TEMPO 2718/2720 BKN015
     FM280000 17008KT 6SM -RA BR VCTS BKN035CB
     FM280200 16007KT 4SM -TSRA BR BKN025CB
     FM280500 20006KT P6SM VCSH BKN025
     FM280900 19006KT 5SM BR BKN015
     FM281500 21010KT P6SM BKN035=

USA.gov is the U.S. government's official web portal to all federal, state and local government web resources and services.